Time;durP1;ratioP1;P1;durP2;ratioP2;P2;SDS_P1;SDS_P2;PMS_P1;PMS_P2;Temp;Humidity;BMP_temperature;BMP_pressure;BME280_temperature;BME280_humidity;BME280_pressure;Samples;Min_cycle;Max_cycle;Signal;HPM_P1;HPM_P2
2022/02/23 00:00:14;;;;;;;3.70;1.13;;;;;;;7.50;75.29;100601.22;10317236;28;20132;-64
2022/02/23 00:05:15;;;;;;;7.30;1.58;;;;;;;7.34;74.72;100602.19;10316636;28;20054;-63
2022/02/23 00:10:17;;;;;;;6.10;1.13;;;;;;;7.32;74.13;100609.34;10318118;28;20042;-65
2022/02/23 00:15:18;;;;;;;5.07;1.55;;;;;;;7.32;74.40;100629.69;10312882;28;20129;-64
2022/02/23 00:20:19;;;;;;;7.75;1.65;;;;;;;7.50;75.83;100638.31;10321126;28;20132;-66
2022/02/23 00:25:21;;;;;;;7.57;1.55;;;;;;;7.30;74.51;100637.72;10314353;28;20054;-64
2022/02/23 00:30:22;;;;;;;6.80;1.63;;;;;;;7.33;73.41;100653.44;10320763;28;20137;-64
2022/02/23 00:35:27;;;;;;;8.60;2.38;;;;;;;7.36;73.08;100673.59;10313441;28;20133;-62
2022/02/23 00:40:28;;;;;;;8.32;2.00;;;;;;;7.32;74.01;100664.97;10314517;28;20133;-65
2022/02/23 00:45:30;;;;;;;8.80;2.00;;;;;;;7.49;73.66;100689.56;10314266;28;20078;-64
2022/02/23 00:50:31;;;;;;;9.52;2.40;;;;;;;7.36;72.85;100692.13;10315204;28;20064;-65
2022/02/23 00:55:34;;;;;;;7.85;1.75;;;;;;;7.46;73.67;100710.94;10312516;28;20038;-64
2022/02/23 01:00:35;;;;;;;9.55;2.58;;;;;;;7.27;73.98;100706.78;10311694;28;20086;-63
2022/02/23 01:05:37;;;;;;;7.43;1.95;;;;;;;7.33;74.91;100719.63;10318570;28;20058;-64
2022/02/23 01:10:38;;;;;;;10.48;2.42;;;;;;;7.29;74.62;100731.34;10315950;28;20141;-64
2022/02/23 01:15:40;;;;;;;8.65;2.47;;;;;;;7.26;74.76;100726.25;10314128;28;20219;-64
2022/02/23 01:20:41;;;;;;;4.50;2.10;;;;;;;7.34;75.08;100753.13;10312569;28;20077;-64
2022/02/23 01:25:42;;;;;;;9.32;3.42;;;;;;;7.17;75.42;100742.66;10311953;28;20060;-64
2022/02/23 01:30:44;;;;;;;13.85;3.97;;;;;;;7.22;76.08;100756.47;10310040;28;20161;-65
2022/02/23 01:35:45;;;;;;;11.68;2.78;;;;;;;7.28;75.83;100761.44;10312101;28;20508;-65
2022/02/23 01:40:47;;;;;;;6.07;2.50;;;;;;;7.23;76.27;100760.84;10316440;28;21000;-62
2022/02/23 01:45:49;;;;;;;11.38;3.53;;;;;;;7.19;76.27;100748.72;10312998;28;20517;-64
2022/02/23 01:50:50;;;;;;;12.93;3.30;;;;;;;7.26;76.07;100763.31;10318281;28;20069;-63
2022/02/23 01:55:51;;;;;;;6.75;3.13;;;;;;;7.32;76.41;100762.94;10312706;28;20126;-64
2022/02/23 02:00:53;;;;;;;9.63;2.88;;;;;;;7.36;76.02;100780.38;10314950;28;20131;-63
2022/02/23 02:05:55;;;;;;;10.30;2.90;;;;;;;7.39;76.42;100788.13;10313916;28;20103;-63
2022/02/23 02:10:56;;;;;;;9.25;2.83;;;;;;;7.41;75.99;100794.19;10321854;28;20064;-64
2022/02/23 02:15:57;;;;;;;10.93;3.00;;;;;;;7.40;75.64;100797.78;10324244;28;20057;-63
2022/02/23 02:20:59;;;;;;;10.55;3.30;;;;;;;7.46;76.25;100806.31;10325674;28;20136;-65
2022/02/23 02:26:00;;;;;;;9.15;3.20;;;;;;;7.30;75.77;100791.31;10320126;28;20048;-66
2022/02/23 02:31:02;;;;;;;9.75;3.05;;;;;;;7.35;76.21;100799.00;10319331;28;20050;-64
2022/02/23 02:36:03;;;;;;;11.45;3.50;;;;;;;7.28;76.36;100806.47;10318127;28;20062;-65
2022/02/23 02:41:05;;;;;;;6.95;2.65;;;;;;;7.32;76.38;100821.22;10321126;28;20836;-64
2022/02/23 02:46:06;;;;;;;11.60;3.13;;;;;;;7.17;76.75;100832.69;10323998;28;20557;-63
2022/02/23 02:51:08;;;;;;;8.25;3.20;;;;;;;7.26;76.43;100843.59;10315045;28;20133;-66
2022/02/23 02:56:09;;;;;;;8.25;3.33;;;;;;;7.26;76.51;100853.34;10321842;28;20128;-64
2022/02/23 03:01:10;;;;;;;9.25;2.78;;;;;;;7.29;76.58;100854.97;10314215;28;20046;-64
2022/02/23 03:06:12;;;;;;;10.70;3.10;;;;;;;7.23;76.75;100853.53;10326308;28;20177;-64
2022/02/23 03:11:14;;;;;;;7.82;2.60;;;;;;;7.26;76.94;100870.06;10325877;28;20561;-64
2022/02/23 03:16:16;;;;;;;10.07;3.22;;;;;;;7.16;76.48;100865.41;10354041;28;20077;-65
2022/02/23 03:21:18;;;;;;;8.02;2.97;;;;;;;7.10;77.53;100878.97;10350861;28;20042;-64
2022/02/23 03:26:20;;;;;;;7.82;2.80;;;;;;;6.99;78.01;100869.00;10322939;28;20078;-64
2022/02/23 03:31:21;;;;;;;7.07;2.53;;;;;;;6.96;78.53;100882.41;10314310;28;20100;-63
2022/02/23 03:36:23;;;;;;;6.35;2.50;;;;;;;7.01;78.08;100890.94;10319123;28;20600;-63
2022/02/23 03:41:24;;;;;;;7.60;2.58;;;;;;;6.95;78.40;100891.28;10308969;28;20131;-64
2022/02/23 03:46:25;;;;;;;10.02;3.03;;;;;;;6.99;78.44;100904.25;10312494;28;20204;-63
2022/02/23 03:51:27;;;;;;;4.97;2.03;;;;;;;7.06;78.64;100915.38;10318165;28;20056;-63
2022/02/23 03:56:40;;;;;;;6.97;2.65;;;;;;;6.96;78.48;100908.88;10312432;28;20126;-63
2022/02/23 04:01:45;;;;;;;10.45;3.05;;;;;;;6.94;78.87;100929.28;10313096;28;20163;-63
2022/02/23 04:06:48;;;;;;;9.48;2.63;;;;;;;6.99;79.04;100933.38;10315754;28;20123;-64
2022/02/23 04:11:49;;;;;;;10.52;2.78;;;;;;;7.01;78.62;100950.03;10308019;28;20050;-64
2022/02/23 04:16:51;;;;;;;10.45;2.55;;;;;;;6.97;78.79;100961.72;10315965;28;20570;-64
2022/02/23 04:21:52;;;;;;;9.32;2.97;;;;;;;6.85;78.11;100976.47;10314812;28;20053;-63
2022/02/23 04:26:54;;;;;;;10.00;2.97;;;;;;;6.93;78.49;100988.44;10312727;28;20077;-63
2022/02/23 04:31:56;;;;;;;5.18;2.03;;;;;;;6.96;78.50;101012.94;10310441;28;20060;-63
2022/02/23 04:36:58;;;;;;;8.93;2.88;;;;;;;6.86;78.44;101030.25;10311857;28;20046;-63
2022/02/23 04:42:01;;;;;;;8.00;2.72;;;;;;;6.77;78.42;101020.16;10312191;28;20856;-62
2022/02/23 04:47:04;;;;;;;8.93;2.88;;;;;;;6.63;78.90;101024.38;10313452;28;20052;-63
2022/02/23 04:52:05;;;;;;;9.25;3.05;;;;;;;6.70;78.60;101052.22;10313121;28;20133;-63
2022/02/23 04:57:07;;;;;;;8.80;2.50;;;;;;;6.73;78.54;101044.13;10314242;28;20081;-63
2022/02/23 05:02:10;;;;;;;11.02;2.67;;;;;;;6.79;77.38;101039.47;10320454;28;20060;-63
2022/02/23 05:07:13;;;;;;;9.88;2.55;;;;;;;6.59;78.48;101051.94;10318404;28;20089;-64
2022/02/23 05:12:14;;;;;;;8.45;2.33;;;;;;;6.50;78.24;101060.31;10314890;28;20061;-64
2022/02/23 05:17:17;;;;;;;10.70;3.65;;;;;;;6.53;80.16;101055.75;10310492;28;20056;-63
2022/02/23 05:22:18;;;;;;;7.57;2.25;;;;;;;6.69;77.37;101076.97;10314657;28;20117;-67
2022/02/23 05:27:19;;;;;;;7.43;2.63;;;;;;;6.64;77.12;101079.00;10315794;28;20048;-63
2022/02/23 05:32:21;;;;;;;9.80;3.20;;;;;;;6.75;76.29;101085.53;10310243;28;20148;-64
2022/02/23 05:37:22;;;;;;;8.40;3.42;;;;;;;6.76;76.20;101111.06;10308215;28;20081;-64
2022/02/23 05:42:24;;;;;;;9.73;3.20;;;;;;;6.72;75.46;101107.72;10314238;28;20604;-63
2022/02/23 05:47:26;;;;;;;10.73;2.95;;;;;;;6.75;75.69;101118.13;10300709;28;20058;-63
2022/02/23 05:52:27;;;;;;;9.60;2.90;;;;;;;6.79;75.84;101126.78;10324792;28;20122;-64
2022/02/23 05:57:29;;;;;;;11.57;3.35;;;;;;;6.73;75.20;101123.50;10302877;28;20423;-65
2022/02/23 06:02:30;;;;;;;8.20;2.95;;;;;;;6.71;75.72;101138.63;10305707;28;20538;-66
2022/02/23 06:07:32;;;;;;;7.78;3.47;;;;;;;6.69;75.25;101140.47;10311550;28;20060;-67
2022/02/23 06:12:33;;;;;;;13.40;3.08;;;;;;;6.64;75.34;101153.06;10306818;28;20505;-65
2022/02/23 06:17:34;;;;;;;10.80;3.42;;;;;;;6.72;76.04;101156.22;10301068;28;20046;-64
2022/02/23 06:22:37;;;;;;;9.90;3.13;;;;;;;6.73;75.56;101167.66;10304534;28;20056;-65
2022/02/23 06:27:39;;;;;;;16.85;3.55;;;;;;;6.70;75.78;101183.69;10304423;28;20416;-65
2022/02/23 06:32:40;;;;;;;13.07;4.13;;;;;;;6.66;75.80;101176.81;10299922;28;20628;-66
2022/02/23 06:37:42;;;;;;;8.27;3.63;;;;;;;6.77;75.71;101176.28;10303074;28;20065;-66
2022/02/23 06:42:43;;;;;;;11.25;3.00;;;;;;;6.68;75.09;101154.66;10304249;28;20389;-65
2022/02/23 06:47:45;;;;;;;8.55;3.30;;;;;;;6.90;75.31;101185.31;10307007;28;20061;-65
2022/02/23 06:52:47;;;;;;;10.50;3.95;;;;;;;6.92;75.21;101187.88;10308244;28;20137;-66
2022/02/23 06:57:48;;;;;;;12.00;3.45;;;;;;;6.89;75.03;101210.06;10335196;28;20328;-65
2022/02/23 07:02:50;;;;;;;11.10;2.70;;;;;;;7.01;74.84;101214.78;10324514;28;20343;-65
2022/02/23 07:07:51;;;;;;;10.38;4.30;;;;;;;7.09;74.55;101219.66;10320749;28;20552;-63
2022/02/23 07:12:53;;;;;;;7.40;2.85;;;;;;;6.94;74.13;101194.81;10321951;28;20455;-63
2022/02/23 07:17:55;;;;;;;9.75;3.05;;;;;;;6.87;74.72;101207.50;10327918;28;20054;-64
2022/02/23 07:22:56;;;;;;;9.02;3.25;;;;;;;7.28;74.23;101224.03;10355631;28;20097;-61
2022/02/23 07:27:58;;;;;;;12.57;4.13;;;;;;;7.42;73.87;101222.38;10327795;28;20077;-66
2022/02/23 07:32:59;;;;;;;9.55;3.85;;;;;;;7.47;72.46;101232.72;10312062;28;20062;-64
2022/02/23 07:38:05;;;;;;;12.65;3.60;;;;;;;7.56;72.55;101242.00;10308199;28;20452;-64
2022/02/23 07:43:06;;;;;;;8.07;3.53;;;;;;;7.58;72.50;101248.94;10319220;28;20204;-65
2022/02/23 07:48:13;;;;;;;12.05;4.15;;;;;;;7.66;72.25;101264.44;10320491;28;20528;-64
2022/02/23 07:53:16;;;;;;;10.20;3.47;;;;;;;7.91;72.06;101279.03;10313696;28;20068;-64
2022/02/23 07:58:18;;;;;;;15.02;4.65;;;;;;;7.97;71.26;101289.31;10318485;28;20049;-64
2022/02/23 08:03:19;;;;;;;9.23;3.75;;;;;;;8.16;70.54;101288.34;10307810;28;20139;-63
2022/02/23 08:08:22;;;;;;;10.35;3.75;;;;;;;8.29;71.19;101273.50;10310431;28;20064;-64
2022/02/23 08:13:23;;;;;;;10.98;4.18;;;;;;;8.42;69.55;101287.81;10312479;28;20049;-64
2022/02/23 08:23:46;;;;;;;8.43;3.97;;;;;;;8.68;68.55;101288.19;10302860;28;20059;-63
2022/02/23 08:28:47;;;;;;;12.45;3.97;;;;;;;8.95;67.47;101298.19;10309993;28;20148;-62
2022/02/23 08:33:49;;;;;;;7.25;3.25;;;;;;;9.06;66.07;101295.75;10306585;28;20070;-62
2022/02/23 08:38:52;;;;;;;7.43;3.30;;;;;;;9.31;66.05;101279.25;10307237;28;20054;-63
2022/02/23 08:43:53;;;;;;;11.90;3.58;;;;;;;9.44;64.27;101299.78;10313556;28;20658;-63
2022/02/23 08:48:55;;;;;;;13.27;3.92;;;;;;;9.59;64.86;101298.00;10313533;28;20132;-64
2022/02/23 08:53:57;;;;;;;7.18;3.20;;;;;;;9.68;63.97;101297.47;10310510;28;20095;-63
2022/02/23 08:58:59;;;;;;;9.73;3.70;;;;;;;9.89;62.33;101306.81;10307340;28;20244;-65
2022/02/23 09:04:02;;;;;;;9.55;3.22;;;;;;;10.03;62.65;101287.34;10312528;28;20049;-66
2022/02/23 09:09:07;;;;;;;11.17;4.07;;;;;;;10.29;61.32;101307.97;10307438;28;20065;-65
2022/02/23 09:14:09;;;;;;;11.60;3.40;;;;;;;10.82;60.92;101316.19;10308906;28;20088;-63
2022/02/23 09:19:11;;;;;;;9.18;3.90;;;;;;;11.24;60.26;101319.66;10303868;28;20137;-62
2022/02/23 09:24:13;;;;;;;10.65;4.15;;;;;;;11.50;59.53;101307.25;10307330;28;20076;-62
2022/02/23 09:29:15;;;;;;;8.25;3.33;;;;;;;11.93;56.94;101312.31;10307788;28;20057;-63
2022/02/23 09:34:19;;;;;;;9.88;3.35;;;;;;;12.08;54.45;101312.22;10304926;28;20068;-63
2022/02/23 09:39:21;;;;;;;10.35;4.32;;;;;;;12.41;53.80;101308.13;10307737;28;20056;-64
2022/02/23 09:44:24;;;;;;;9.65;3.88;;;;;;;12.50;52.32;101307.47;10308581;28;20088;-64
2022/02/23 09:49:25;;;;;;;10.18;2.75;;;;;;;13.00;52.51;101310.94;10307358;28;20110;-64
2022/02/23 09:54:27;;;;;;;7.80;2.25;;;;;;;12.98;50.06;101310.19;10308579;28;20054;-62
2022/02/23 09:59:28;;;;;;;9.45;3.28;;;;;;;13.68;48.88;101287.16;10309691;28;20049;-62
2022/02/23 10:04:30;;;;;;;11.48;2.55;;;;;;;14.52;46.51;101299.34;10302784;28;20870;-62
2022/02/23 10:09:53;;;;;;;7.63;3.30;;;;;;;15.72;43.35;101284.91;10297973;28;20054;-62
2022/02/23 10:15:18;;;;;;;8.77;2.17;;;;;;;18.57;37.31;101297.56;10302977;28;20744;-60
2022/02/23 10:20:28;;;;;;;6.95;2.42;;;;;;;20.25;32.85;101301.34;10307828;28;20046;-63
2022/02/23 10:25:31;;;;;;;6.47;2.92;;;;;;;21.77;31.07;101291.31;10310539;28;20129;-62
2022/02/23 10:30:34;;;;;;;10.00;3.15;;;;;;;20.23;32.25;101285.28;10318139;28;20412;-61
2022/02/23 10:35:35;;;;;;;10.13;2.72;;;;;;;18.84;34.70;101288.56;10307534;28;20061;-61
2022/02/23 10:40:42;;;;;;;7.05;2.55;;;;;;;19.30;34.76;101301.19;10314469;28;20045;-62
2022/02/23 10:45:44;;;;;;;9.10;3.35;;;;;;;19.32;33.90;101291.94;10317177;28;20108;-63
2022/02/23 10:50:53;;;;;;;8.35;3.35;;;;;;;23.30;28.13;101291.81;10310399;28;20907;-62
2022/02/23 10:55:55;;;;;;;6.07;2.15;;;;;;;26.59;23.18;101282.56;10314504;28;20057;-61
2022/02/23 11:01:03;;;;;;;7.35;2.40;;;;;;;28.15;21.52;101278.69;10316936;28;20621;-63
2022/02/23 11:06:11;;;;;;;7.05;2.78;;;;;;;29.12;19.39;101268.72;10316009;28;20818;-63
2022/02/23 11:11:13;;;;;;;7.80;2.37;;;;;;;28.23;19.99;101255.69;10317455;28;20187;-63
2022/02/23 11:16:16;;;;;;;6.32;1.90;;;;;;;28.35;19.37;101258.59;10314158;28;20054;-62
2022/02/23 11:21:19;;;;;;;8.75;2.10;;;;;;;30.67;18.48;101255.91;10326673;28;20140;-61
2022/02/23 11:26:21;;;;;;;7.43;2.17;;;;;;;29.36;18.49;101253.38;10316598;28;20053;-64
2022/02/23 11:31:24;;;;;;;6.00;2.20;;;;;;;30.57;18.10;101245.50;10310110;28;20108;-63
2022/02/23 11:36:35;;;;;;;6.22;2.78;;;;;;;31.88;16.00;101243.78;10312136;28;20060;-63
2022/02/23 11:41:46;;;;;;;5.22;1.92;;;;;;;32.12;15.88;101238.28;10321787;28;20045;-63
2022/02/23 11:47:21;;;;;;;6.60;2.25;;;;;;;31.80;15.94;101231.25;10310141;28;20370;-62
2022/02/23 11:58:02;;;;;;;4.68;1.73;;;;;;;33.47;14.63;101205.38;10318667;28;20050;-60
2022/02/23 12:03:11;;;;;;;7.32;1.90;;;;;;;32.36;15.48;101205.97;10307361;28;20535;-61
2022/02/23 12:08:31;;;;;;;6.22;2.42;;;;;;;34.21;13.94;101208.84;10313650;28;20999;-61
2022/02/23 12:13:38;;;;;;;4.65;1.50;;;;;;;34.50;12.70;101195.66;10311477;28;20511;-61
2022/02/23 12:18:46;;;;;;;7.47;2.20;;;;;;;34.32;13.56;101204.28;10341738;28;20073;-63
2022/02/23 12:23:48;;;;;;;6.38;2.33;;;;;;;35.63;12.43;101189.34;10344183;28;20053;-62
2022/02/23 12:28:53;;;;;;;5.35;1.92;;;;;;;35.86;11.47;101183.38;10347812;28;20064;-62
2022/02/23 12:34:04;;;;;;;6.10;2.37;;;;;;;35.54;11.40;101187.06;10342600;28;20057;-62
2022/02/23 12:39:29;;;;;;;5.55;1.77;;;;;;;36.29;11.86;101180.50;10340178;28;20057;-62
2022/02/23 12:44:37;;;;;;;7.13;2.65;;;;;;;35.19;11.86;101168.28;10346382;28;20184;-62
2022/02/23 12:49:39;;;;;;;7.00;1.38;;;;;;;36.12;11.29;101164.03;10340375;28;20140;-62
2022/02/23 12:54:40;;;;;;;5.13;2.30;;;;;;;35.72;11.61;101154.50;10341303;28;20053;-61
2022/02/23 12:59:42;;;;;;;5.32;1.88;;;;;;;35.93;11.65;101149.91;10341479;28;20063;-62
2022/02/23 13:04:46;;;;;;;4.57;1.80;;;;;;;37.06;10.71;101138.09;10337762;28;20102;-62
2022/02/23 13:09:53;;;;;;;6.40;1.85;;;;;;;37.05;10.20;101134.47;10341220;28;20054;-62
2022/02/23 13:14:57;;;;;;;5.18;1.92;;;;;;;35.83;11.54;101122.16;10337601;28;20064;-62
2022/02/23 13:19:59;;;;;;;5.53;1.90;;;;;;;35.50;11.32;101111.19;10341821;28;20054;-62
2022/02/23 13:25:00;;;;;;;6.00;1.85;;;;;;;35.98;11.46;101096.44;10340275;28;20056;-62
2022/02/23 13:30:22;;;;;;;4.60;1.70;;;;;;;36.16;10.64;101090.38;10339417;28;20049;-62
2022/02/23 13:35:23;;;;;;;5.00;1.55;;;;;;;36.55;10.94;101089.84;10337927;28;20068;-62
2022/02/23 13:40:25;;;;;;;7.97;2.20;;;;;;;36.51;10.00;101083.19;10345391;28;20060;-66
2022/02/23 13:45:31;;;;;;;3.97;1.58;;;;;;;37.39;10.28;101083.88;10340034;28;20515;-65
2022/02/23 13:50:36;;;;;;;4.43;1.30;;;;;;;37.04;9.91;101079.25;10344036;28;20581;-65
2022/02/23 13:55:40;;;;;;;5.78;2.28;;;;;;;36.66;10.34;101078.75;10340138;28;20688;-64
2022/02/23 14:00:50;;;;;;;3.60;1.17;;;;;;;36.53;9.76;101064.34;10339754;28;20073;-64
2022/02/23 14:06:06;;;;;;;3.80;1.83;;;;;;;37.10;10.25;101067.88;10344351;28;20061;-62
2022/02/23 14:11:26;;;;;;;4.95;1.40;;;;;;;36.89;10.50;101050.47;10347857;28;20713;-64
2022/02/23 14:16:44;;;;;;;5.30;1.40;;;;;;;36.87;10.27;101041.56;10317450;28;20063;-64
2022/02/23 14:21:49;;;;;;;6.00;1.37;;;;;;;36.61;9.67;101032.47;10316952;28;20052;-64
2022/02/23 14:26:57;;;;;;;5.10;1.30;;;;;;;35.36;10.88;101029.81;10338065;28;20106;-63
2022/02/23 14:32:01;;;;;;;5.43;1.50;;;;;;;35.90;9.94;101025.81;10328544;28;20701;-63
2022/02/23 14:37:02;;;;;;;4.18;1.27;;;;;;;35.79;10.16;101008.31;10319807;28;20843;-63
2022/02/23 14:42:04;;;;;;;5.05;1.65;;;;;;;34.78;11.07;101008.47;10314979;28;20133;-63
2022/02/23 14:47:05;;;;;;;2.85;0.82;;;;;;;35.65;10.39;100990.56;10319233;28;20146;-64
2022/02/23 14:52:07;;;;;;;4.60;1.50;;;;;;;35.03;10.58;100993.13;10311308;28;20124;-63
2022/02/23 14:57:11;;;;;;;2.97;1.63;;;;;;;33.95;11.16;100995.91;10313404;28;20071;-63
2022/02/23 15:02:16;;;;;;;2.90;0.98;;;;;;;32.58;12.00;100983.75;10314422;28;20177;-65
2022/02/23 15:07:18;;;;;;;4.13;1.23;;;;;;;32.60;12.20;100961.44;10309862;28;20069;-63
2022/02/23 15:12:19;;;;;;;3.13;1.00;;;;;;;32.09;12.42;100975.22;10311710;28;20085;-64
2022/02/23 15:17:21;;;;;;;5.25;1.20;;;;;;;28.29;15.22;100948.25;10304559;28;20050;-65
2022/02/23 15:22:23;;;;;;;9.88;1.85;;;;;;;24.11;19.42;100964.03;10305389;28;20049;-62
2022/02/23 15:27:24;;;;;;;4.40;1.23;;;;;;;21.63;22.30;100975.91;10304739;28;20097;-62
2022/02/23 15:32:26;;;;;;;5.57;1.10;;;;;;;19.56;24.47;100960.97;10320676;28;21157;-62
2022/02/23 15:37:27;;;;;;;5.90;1.48;;;;;;;18.60;26.01;100952.13;10308428;28;20353;-62
2022/02/23 15:42:29;;;;;;;3.20;1.40;;;;;;;18.05;28.19;100952.41;10307830;28;20057;-62
2022/02/23 15:47:31;;;;;;;5.78;1.85;;;;;;;17.47;27.80;100955.34;10304596;28;20057;-61
2022/02/23 15:52:33;;;;;;;5.18;1.45;;;;;;;16.86;29.48;100950.50;10307284;28;20131;-62
2022/02/23 15:57:34;;;;;;;5.40;1.23;;;;;;;16.28;30.52;100932.75;10308214;28;20132;-63
2022/02/23 16:02:36;;;;;;;4.35;1.48;;;;;;;15.90;31.57;100921.91;10320798;28;20054;-62
2022/02/23 16:07:38;;;;;;;4.18;2.20;;;;;;;15.59;32.31;100918.47;10301686;28;20360;-65
2022/02/23 16:12:39;;;;;;;5.72;1.80;;;;;;;15.27;33.98;100919.56;10303711;28;20133;-65
2022/02/23 16:17:41;;;;;;;6.88;1.52;;;;;;;14.97;34.57;100918.63;10302957;28;20061;-61
2022/02/23 16:23:01;;;;;;;6.20;2.38;;;;;;;14.44;35.28;100896.38;10296739;28;20081;-63
2022/02/23 16:28:03;;;;;;;5.90;2.72;;;;;;;14.15;36.04;100896.19;10301967;28;20581;-63
2022/02/23 16:33:04;;;;;;;4.45;1.50;;;;;;;13.89;36.42;100885.88;10301701;28;20046;-63
2022/02/23 16:38:09;;;;;;;5.90;2.67;;;;;;;13.51;37.27;100873.88;10308114;28;20057;-64
2022/02/23 16:43:11;;;;;;;;;;;;;;;13.42;37.26;100870.16;10304876;28;20073;-63
2022/02/23 16:48:15;;;;;;;5.40;2.10;;;;;;;13.34;37.65;100864.56;10300421;28;20040;-62
2022/02/23 16:53:17;;;;;;;6.45;2.13;;;;;;;13.28;37.75;100854.34;10308078;28;20057;-63
2022/02/23 16:58:18;;;;;;;4.90;2.00;;;;;;;13.12;38.39;100837.88;10306250;28;20706;-63
2022/02/23 17:03:20;;;;;;;4.28;1.90;;;;;;;12.97;38.57;100854.19;10308632;28;20302;-64
2022/02/23 17:08:21;;;;;;;5.30;1.77;;;;;;;12.95;38.93;100850.78;10310100;28;20052;-63
2022/02/23 17:13:23;;;;;;;9.45;3.22;;;;;;;12.86;39.06;100859.53;10298257;28;20447;-66
2022/02/23 17:18:25;;;;;;;6.90;2.15;;;;;;;12.55;39.91;100822.78;10305379;28;20181;-64
2022/02/23 17:23:29;;;;;;;8.00;3.10;;;;;;;12.42;39.36;100834.59;10309402;28;20247;-63
2022/02/23 17:28:31;;;;;;;5.40;2.60;;;;;;;12.35;40.24;100832.38;10303287;28;20057;-62
2022/02/23 17:33:36;;;;;;;5.35;1.92;;;;;;;12.29;40.19;100835.53;10308477;28;20107;-63
2022/02/23 17:38:38;;;;;;;6.22;2.00;;;;;;;12.00;40.61;100819.13;10303508;28;20069;-64
2022/02/23 17:43:39;;;;;;;6.13;2.10;;;;;;;11.96;40.90;100801.66;10308725;28;20062;-63
2022/02/23 17:48:40;;;;;;;8.80;1.90;;;;;;;11.88;40.97;100802.22;10309801;28;20142;-63
2022/02/23 17:53:42;;;;;;;5.45;2.58;;;;;;;11.74;41.25;100776.63;10308521;28;20205;-64
2022/02/23 17:58:43;;;;;;;6.85;2.45;;;;;;;11.84;41.79;100800.75;10307218;28;20133;-64
2022/02/23 18:03:45;;;;;;;6.95;2.45;;;;;;;11.82;41.90;100792.88;10314075;28;20226;-63
2022/02/23 18:08:46;;;;;;;6.80;2.15;;;;;;;11.75;42.12;100788.97;10310952;28;20049;-63
2022/02/23 18:13:49;;;;;;;9.70;3.45;;;;;;;11.56;42.50;100773.56;10318045;28;20053;-63
2022/02/23 18:18:51;;;;;;;7.70;3.47;;;;;;;11.41;42.90;100769.38;10316120;28;20091;-61
2022/02/23 18:23:53;;;;;;;6.22;3.17;;;;;;;11.38;43.34;100772.25;10298309;28;20062;-60
2022/02/23 18:28:55;;;;;;;7.43;2.75;;;;;;;11.20;43.15;100751.38;10311256;28;20137;-61
2022/02/23 18:33:56;;;;;;;10.98;3.70;;;;;;;11.09;44.02;100760.19;10305185;28;20746;-61
2022/02/23 18:38:58;;;;;;;9.23;4.00;;;;;;;11.04;44.80;100748.16;10304451;28;20050;-63
2022/02/23 18:44:00;;;;;;;8.68;3.83;;;;;;;11.01;44.72;100729.75;10311500;28;20060;-61
2022/02/23 18:49:01;;;;;;;9.07;4.40;;;;;;;10.77;45.46;100706.63;10309510;28;21012;-61
2022/02/23 18:54:03;;;;;;;5.32;4.45;;;;;;;11.04;45.65;100746.34;10319334;28;20470;-62
2022/02/23 18:59:04;;;;;;;10.38;5.57;;;;;;;11.07;45.49;100755.94;10317143;28;20056;-63
2022/02/23 19:04:07;;;;;;;9.48;5.30;;;;;;;10.87;45.86;100744.94;10313274;28;20425;-62
2022/02/23 19:09:10;;;;;;;9.20;6.07;;;;;;;10.82;46.32;100741.75;10325167;28;20076;-64
2022/02/23 19:14:12;;;;;;;8.88;4.43;;;;;;;10.78;46.08;100753.63;10313143;28;20525;-62
2022/02/23 19:19:14;;;;;;;10.40;4.65;;;;;;;10.74;46.13;100746.81;10312303;28;20042;-63
2022/02/23 19:24:15;;;;;;;10.60;5.45;;;;;;;10.65;46.92;100739.50;10315886;28;20892;-62
2022/02/23 19:29:19;;;;;;;8.53;4.73;;;;;;;10.71;46.86;100755.03;10313017;28;20243;-62
2022/02/23 19:34:21;;;;;;;11.63;6.50;;;;;;;10.61;47.18;100723.75;10307384;28;21466;-62
2022/02/23 19:39:22;;;;;;;8.02;5.80;;;;;;;10.53;47.43;100725.28;10310929;28;20484;-62
2022/02/23 19:44:24;;;;;;;8.10;5.18;;;;;;;10.53;47.84;100735.91;10317393;28;20052;-62
2022/02/23 19:49:25;;;;;;;11.80;5.05;;;;;;;10.58;48.06;100721.31;10311749;28;20060;-63
2022/02/23 19:54:27;;;;;;;12.35;5.43;;;;;;;10.46;48.08;100718.69;10311698;28;20056;-63
2022/02/23 19:59:28;;;;;;;8.60;5.07;;;;;;;10.40;48.53;100712.00;10306667;28;20046;-62
2022/02/23 20:04:30;;;;;;;8.88;4.65;;;;;;;10.22;48.39;100703.50;10305371;28;20498;-64
2022/02/23 20:09:31;;;;;;;9.45;5.63;;;;;;;10.28;48.83;100705.72;10310664;28;20542;-63
2022/02/23 20:14:33;;;;;;;8.25;4.85;;;;;;;10.12;48.82;100683.81;10310702;28;20228;-63
2022/02/23 20:19:36;;;;;;;12.25;5.47;;;;;;;10.09;49.01;100684.91;10305413;28;21848;-64
2022/02/23 20:24:37;;;;;;;9.40;5.95;;;;;;;10.00;48.97;100696.22;10312338;28;20528;-63
2022/02/23 20:29:38;;;;;;;9.07;5.85;;;;;;;9.91;49.29;100698.56;10307570;28;20050;-62
2022/02/23 20:34:40;;;;;;;8.43;5.93;;;;;;;9.93;49.22;100690.47;10310230;28;20050;-62
2022/02/23 20:39:42;;;;;;;9.43;5.10;;;;;;;9.90;49.45;100680.88;10304367;28;20851;-61
2022/02/23 20:44:43;;;;;;;12.73;5.82;;;;;;;9.75;49.58;100689.94;10308098;28;20256;-63
2022/02/23 20:49:45;;;;;;;9.98;5.57;;;;;;;9.45;50.16;100651.25;10307153;28;20057;-62
2022/02/23 20:54:48;;;;;;;7.00;4.53;;;;;;;9.73;50.11;100683.91;10305311;28;20068;-63
2022/02/23 20:59:52;;;;;;;9.68;4.40;;;;;;;9.65;50.49;100657.88;10300307;28;20236;-63
2022/02/23 21:04:55;;;;;;;9.02;4.78;;;;;;;9.84;49.96;100657.41;10318946;28;20057;-63
2022/02/23 21:09:58;;;;;;;6.68;5.22;;;;;;;9.82;50.76;100650.50;10315302;28;20140;-64
2022/02/23 21:14:59;;;;;;;7.53;4.70;;;;;;;10.00;50.47;100665.16;10313406;28;20054;-65
2022/02/23 21:20:06;;;;;;;6.82;4.15;;;;;;;9.85;50.00;100660.94;10314606;28;20500;-64
2022/02/23 21:25:09;;;;;;;7.53;5.10;;;;;;;9.91;50.69;100661.31;10318833;28;20951;-65
2022/02/23 21:30:15;;;;;;;8.18;5.15;;;;;;;10.02;50.63;100654.41;10319225;28;20192;-63
2022/02/23 21:35:18;;;;;;;8.40;5.03;;;;;;;9.90;51.22;100650.81;10310125;28;20196;-62
2022/02/23 21:40:20;;;;;;;7.93;5.32;;;;;;;9.83;51.39;100652.19;10309616;28;20117;-61
2022/02/23 21:45:21;;;;;;;8.55;5.30;;;;;;;9.82;51.41;100656.66;10291140;28;20062;-62
2022/02/23 21:50:23;;;;;;;8.02;6.32;;;;;;;9.69;51.72;100637.22;10299452;28;20131;-62
2022/02/23 21:55:26;;;;;;;10.77;6.55;;;;;;;9.75;51.37;100647.41;10328255;28;20055;-65
2022/02/23 22:00:27;;;;;;;10.35;6.45;;;;;;;9.70;51.96;100641.59;10342497;28;20620;-64
2022/02/23 22:05:29;;;;;;;10.27;8.25;;;;;;;9.63;52.28;100632.34;10321097;28;20058;-64
2022/02/23 22:10:30;;;;;;;9.68;7.00;;;;;;;9.60;52.33;100635.22;10313697;28;20198;-64
2022/02/23 22:15:32;;;;;;;7.47;5.82;;;;;;;9.59;52.16;100623.72;10310134;28;20062;-64
2022/02/23 22:20:35;;;;;;;12.75;7.28;;;;;;;9.65;51.97;100625.09;10305754;28;20097;-65
2022/02/23 22:25:36;;;;;;;11.57;7.00;;;;;;;9.63;52.01;100613.75;10314198;28;20469;-64
2022/02/23 22:30:38;;;;;;;9.57;7.20;;;;;;;9.48;52.48;100611.19;10319400;28;20146;-64
2022/02/23 22:35:39;;;;;;;8.60;6.20;;;;;;;9.63;52.50;100613.75;10322120;28;20050;-66
2022/02/23 22:40:41;;;;;;;11.32;6.68;;;;;;;9.59;52.86;100613.09;10319058;28;20064;-65
2022/02/23 22:45:42;;;;;;;11.48;7.72;;;;;;;9.54;52.97;100608.09;10320430;28;20538;-66
2022/02/23 22:50:44;;;;;;;9.25;5.82;;;;;;;9.46;52.54;100591.03;10317257;28;20144;-64
2022/02/23 22:55:45;;;;;;;6.95;5.22;;;;;;;9.42;52.82;100585.06;10318061;28;20068;-64
2022/02/23 23:00:50;;;;;;;16.95;7.75;;;;;;;9.44;53.18;100587.59;10318272;28;20044;-64
2022/02/23 23:11:12;;;;;;;9.68;7.22;;;;;;;9.42;53.39;100562.97;10317744;28;20356;-64
2022/02/23 23:16:14;;;;;;;10.90;7.18;;;;;;;9.27;53.76;100546.28;10315156;28;20132;-65
2022/02/23 23:21:16;;;;;;;10.07;6.32;;;;;;;9.38;53.67;100562.31;10320517;28;20469;-63
2022/02/23 23:26:17;;;;;;;7.82;6.53;;;;;;;9.27;53.59;100551.59;10318235;28;20056;-65
2022/02/23 23:31:19;;;;;;;9.38;6.63;;;;;;;9.24;54.01;100533.22;10315672;28;20055;-64